< Typhoon 195203 1952 Season Typhoon 195205 >
Typhoon 195204 (FREDA)
General InformationTrack Information on Google Maps || Disaster Info.ResourceGoogle EarthGE AnimationAtom FeedGeoJSON
Detalied Best Track (Time Zone = UTC)
Year Month Day Hour Lat. Long. Pressure (hPa) Wind (kt) Class Image Chart
1952 7 10 18 24.0 125.5 1002 0 2 -- Chart
1952 7 11 00 24.0 126.7 1001 0 2 -- Chart
1952 7 11 06 24.4 127.7 998 0 2 -- Chart
1952 7 11 12 24.6 127.9 997 0 2 -- Chart
1952 7 11 18 25.3 128.0 998 0 2 -- Chart
1952 7 12 00 25.3 128.3 997 0 2 -- Chart
1952 7 12 06 25.3 129.2 995 0 2 -- Chart
1952 7 12 12 25.5 130.4 990 0 2 -- Chart
1952 7 12 18 26.2 131.2 992 0 2 -- Chart
1952 7 13 00 26.3 131.8 993 0 2 -- Chart
1952 7 13 06 26.7 132.2 993 0 2 -- Chart
1952 7 13 12 27.1 132.3 992 0 2 -- Chart
1952 7 13 18 27.5 132.3 993 0 2 -- Chart
1952 7 14 00 28.0 132.7 998 0 9 -- Chart
1952 7 14 06 29.0 132.5 995 0 9 -- Chart
1952 7 14 12 29.2 132.0 996 0 9 -- Chart
1952 7 14 18 30.3 132.3 995 0 9 -- Chart
1952 7 15 00 31.5 131.4 998 0 9 -- Chart
1952 7 15 06 32.5 130.8 999 0 9 -- Chart
1952 7 15 12 33.3 129.0 1003 0 2 -- Chart
1952 7 15 18 34.4 130.2 1005 0 2 -- Chart
1952 7 16 00 36.0 131.6 1006 0 2 -- Chart
1952 7 16 06 37.7 131.7 1007 0 2 -- Chart
Japan Meteorological Agency Best Track Data | Correction Date : 1989-06-01
< Typhoon 195203 1952 Season Typhoon 195205 >

Help